Pagina principale
METAR-TAF:

METAR-TAF

Aeroporti :

Baghdad, Iraq

Aeroporto Internazionale di Baghdad

latitudine: 33-15-45N, longitudine: 44-14-04E, altezza: 35 m

Osservazione

Il bollettino è stato emesso 54 minuti fa, alle 13:00 UTC
Vento 13 kt da nord/nord-ovest
Temperature 18°C
Umidità 64%
Pressione 1008 hPa
Visibilità 10 km o più
Nuvoloso ad un'altezza di 3000 ft

METAR: ORBI 241300Z 33013KT 9999 BKN030 18/11 Q1008 NOSIG

Ora: 16:54 (13:54 UTC)

Previsione

Il bollettino è stato emesso 3 ore e 54 minuti fa, alle 10:00 UTC
Previsione valida dal 24 alle 12 UTC al 25 alle 12 UTC
Vento 6 kt da nord-ovest
Visibilità: 7000 m
Nubi sparse ad un'altezza di 4000 ft

TAF: ORBI 241000Z 2412/2512 32006KT 7000 SCT040

Osservazioni e previsioni meteorologiche di più di 4000 aeroporti (messaggi METAR e TAF).

Le stazioni disponibili sono rappresentate dai dischi gialli e rossi sulla carta.

Puntare il mouse per vedere il nome della stazione.

Clicca sopra per visualizzare le osservazioni e previsioni meteorologiche.

Per cambiare la mappa : fare clic sui pulsanti verdi con una croce nera per ingrandire, il pulsante verde con un trattino per diminuire, o sulla freccia verde per le mappe adiacenti.


METAR-TAF: